Time,TemperatureF,DewpointF,PressureIn,WindDirection,WindDirectionDegrees,WindSpeedMPH,WindSpeedGustMPH,Humidity,HourlyPrecipIn,Conditions,Clouds,dailyrainin,SoftwareType,DateUTC
2013-01-19 00:00:00,31.0,8.0,-100.00,NNW,327,1.0,5.0,38,-99.99,,,-99.99,,2013-01-19 07:00:00,
2013-01-19 00:52:00,31.0,8.0,-100.00,NNW,327,1.0,5.0,38,-99.99,,,-99.99,,2013-01-19 07:52:00,
2013-01-19 01:00:00,30.0,-99.9,-100.00,North,-999,-999.0,-999.0,-999,-99.99,,,-99.99,,2013-01-19 08:00:00,
2013-01-19 01:53:00,30.0,-99.9,-100.00,North,-999,-999.0,-999.0,-999,-99.99,,,-99.99,,2013-01-19 08:53:00,
2013-01-19 02:00:00,29.0,8.0,-100.00,NNW,330,1.0,6.0,40,-99.99,,,-99.99,,2013-01-19 09:00:00,
2013-01-19 02:53:00,29.0,8.0,-100.00,NNW,330,1.0,6.0,40,-99.99,,,-99.99,,2013-01-19 09:53:00,
2013-01-19 03:00:00,29.0,7.0,-100.00,East,89,1.0,4.0,39,-99.99,,,-99.99,,2013-01-19 10:00:00,
2013-01-19 03:53:00,29.0,7.0,-100.00,East,89,1.0,4.0,39,-99.99,,,-99.99,,2013-01-19 10:53:00,
2013-01-19 05:00:00,27.0,3.0,-100.00,ESE,106,0.0,3.0,34,-99.99,,,-99.99,,2013-01-19 12:00:00,
2013-01-19 05:53:00,27.0,3.0,-100.00,ESE,106,0.0,3.0,34,-99.99,,,-99.99,,2013-01-19 12:53:00,
2013-01-19 06:00:00,25.0,1.0,-100.00,ESE,123,1.0,3.0,35,-99.99,,,-99.99,,2013-01-19 13:00:00,
2013-01-19 06:53:00,25.0,1.0,-100.00,ESE,123,1.0,3.0,35,-99.99,,,-99.99,,2013-01-19 13:53:00,
2013-01-19 07:00:00,26.0,2.0,-100.00,ESE,115,1.0,4.0,34,-99.99,,,-99.99,,2013-01-19 14:00:00,
2013-01-19 07:53:00,26.0,2.0,-100.00,ESE,115,1.0,4.0,34,-99.99,,,-99.99,,2013-01-19 14:53:00,
2013-01-19 08:00:00,30.0,3.0,-100.00,NNW,343,1.0,4.0,31,-99.99,,,-99.99,,2013-01-19 15:00:00,
2013-01-19 08:53:00,30.0,3.0,-100.00,NNW,343,1.0,4.0,31,-99.99,,,-99.99,,2013-01-19 15:53:00,
2013-01-19 09:00:00,29.0,1.0,-100.00,North,357,1.0,4.0,29,-99.99,,,-99.99,,2013-01-19 16:00:00,
2013-01-19 09:54:00,29.0,1.0,-100.00,North,357,1.0,4.0,29,-99.99,,,-99.99,,2013-01-19 16:54:00,
2013-01-19 10:00:00,32.0,3.0,-100.00,NNW,327,1.0,4.0,28,-99.99,,,-99.99,,2013-01-19 17:00:00,
2013-01-19 10:54:00,32.0,3.0,-100.00,NNW,327,1.0,4.0,28,-99.99,,,-99.99,,2013-01-19 17:54:00,
2013-01-19 11:00:00,36.0,2.0,-100.00,NNW,343,1.0,4.0,24,-99.99,,,-99.99,,2013-01-19 18:00:00,
2013-01-19 11:59:00,36.0,2.0,-100.00,NNW,343,1.0,4.0,24,-99.99,,,-99.99,,2013-01-19 18:59:00,
2013-01-19 12:00:00,37.0,1.0,-100.00,NNW,347,1.0,5.0,21,-99.99,,,-99.99,,2013-01-19 19:00:00,
2013-01-19 13:00:00,38.0,0.0,-100.00,NNW,348,1.0,4.0,19,-99.99,,,-99.99,,2013-01-19 20:00:00,
2013-01-19 13:57:00,38.0,0.0,-100.00,NNW,348,1.0,4.0,19,-99.99,,,-99.99,,2013-01-19 20:57:00,
2013-01-19 14:00:00,37.0,0.0,-100.00,NNW,334,1.0,6.0,20,-99.99,,,-99.99,,2013-01-19 21:00:00,
2013-01-19 14:59:00,37.0,0.0,-100.00,NNW,334,1.0,6.0,20,-99.99,,,-99.99,,2013-01-19 21:59:00,
2013-01-19 15:00:00,36.0,1.0,-100.00,NW,323,1.0,4.0,22,-99.99,,,-99.99,,2013-01-19 22:00:00,
2013-01-19 15:58:00,36.0,1.0,-100.00,NW,323,1.0,4.0,22,-99.99,,,-99.99,,2013-01-19 22:58:00,
2013-01-19 16:00:00,35.0,-1.0,-100.00,NW,320,1.0,5.0,21,-99.99,,,0.00,,2013-01-19 23:00:00,
2013-01-19 17:00:00,31.0,-2.0,-100.00,WNW,303,1.0,4.0,23,-99.99,,,-99.99,,2013-01-20 00:00:00,
2013-01-19 17:55:00,31.0,-2.0,-100.00,WNW,303,1.0,4.0,23,-99.99,,,-99.99,,2013-01-20 00:55:00,
2013-01-19 18:00:00,31.0,-2.0,-100.00,NW,317,1.0,6.0,24,-99.99,,,-99.99,,2013-01-20 01:00:00,
2013-01-19 19:58:00,30.0,-1.0,-100.00,West,266,1.0,5.0,26,-99.99,,,0.00,,2013-01-20 02:58:00,
2013-01-19 20:00:00,30.0,1.0,-100.00,NNE,26,1.0,4.0,29,-99.99,,,-99.99,,2013-01-20 03:00:00,
2013-01-19 20:57:00,30.0,1.0,-100.00,NNE,26,1.0,4.0,29,-99.99,,,-99.99,,2013-01-20 03:57:00,
2013-01-19 21:00:00,29.0,1.0,-100.00,NNW,341,1.0,4.0,29,-99.99,,,-99.99,,2013-01-20 04:00:00,
2013-01-19 21:56:00,29.0,1.0,-100.00,NNW,341,1.0,4.0,29,-99.99,,,-99.99,,2013-01-20 04:56:00,
2013-01-19 22:00:00,29.0,1.0,-100.00,North,357,1.0,5.0,30,-99.99,,,-99.99,,2013-01-20 05:00:00,
2013-01-19 22:53:00,29.0,1.0,-100.00,North,357,1.0,5.0,30,-99.99,,,-99.99,,2013-01-20 05:53:00,
2013-01-19 23:00:00,30.0,-1.0,-100.00,NNW,344,1.0,4.0,26,-99.99,,,-99.99,,2013-01-20 06:00:00,
2013-01-19 23:53:00,30.0,-1.0,-100.00,NNW,344,1.0,4.0,26,-99.99,,,-99.99,,2013-01-20 06:53:00,